METAR AND TAF INFORMATION
METAR FOR KPBI
KPBI 211653Z 13013KT 10SM SCT027 SCT250 31/25 A3009 RMK AO2 SLP189 T03110250 $
KPBI 211553Z 11012KT 10SM FEW025 SCT250 31/25 A3009 RMK AO2 SLP190 T03110250 $
KPBI 211453Z 11010KT 10SM SCT024 BKN034 BKN250 31/24 A3009 RMK AO2 SLP189 T03060244 53010 $
KPBI 211724Z 2118/2218 12012KT P6SM VCSH SCT030 BKN040 BKN250
FM212000 12011KT P6SM SCT030 SCT050
FM220200 12008KT P6SM SCT030
FM220500 VRB04KT P6SM VCSH SCT030 BKN050
FM221500 11010KT P6SM VCTS SCT030CB BKN050

 AIRPORT MAP

 RUNWAY INFORMATION
Runway 10L Runway length 10008 ft Runway width 150 ft
Runway elevation 19 ft Runway displaced threshold 1200 ft Runway heading 93
Runway 28R Runway length 10008 ft Runway width 150 ft
Runway elevation 16 ft Runway displaced threshold 811 ft Runway heading 273
Runway 10R Runway length 3213 ft Runway width 75 ft
Runway elevation 17 ft Runway displaced threshold 0 ft Runway heading 93
Runway 28L Runway length 3213 ft Runway width 75 ft
Runway elevation 14 ft Runway displaced threshold 0 ft Runway heading 273
Runway 14 Runway length 6932 ft Runway width 150 ft
Runway elevation 17 ft Runway displaced threshold 0 ft Runway heading 135
Runway 32 Runway length 6932 ft Runway width 150 ft
Runway elevation 16 ft Runway displaced threshold 428 ft Runway heading 315

 AIRPORT FREQUENCIES
Type APP Name APP Frequency 124.6 MHZ
Type ASOS Name ASOS Frequency 119.975 MHZ
Type ATIS Name ATIS Frequency 123.75 MHZ
Type CLD Name CLNC DEL Frequency 121.6 MHZ
Type DEP Name DEP Frequency 127.35 MHZ
Type GND Name GND Frequency 121.9 MHZ
Type RDO Name MIAMI RDO Frequency 122.4 MHZ
Type TWR Name TWR Frequency 119.1 MHZ
Type UNIC Name UNICOM Frequency 122.95 MHZ

 AIRPORT NEAR NAVIGATION AIDS
Type NDB Name Rubin Frequency 356 KHZ
Type VORTAC Name Palm Beach Frequency 115700 KHZ

-